Terminal Aerodrome Forecast
Issued by NWS Atlanta, GA

Home | Current Version | Previous Version | Text Only | Print | Product List | Glossary On
Versions: 1 2 3 4 5 6 7 8 9 10 11 12 13 14 15 16 17 18 19 20 21 22 23 24 25 26 27 28 29 30 31
000
FTAK31 PAJN 300500 RRA
TAFAHN
TAF
PAHN 300541Z 3006/3106 09008KT P6SM VCSH SCT015 OVC035
      TEMPO 3006/3009 09010G18KT -SHRA BKN015
     FM300900 08007KT P6SM VCSH BKN015 OVC035
     FM301500 31008KT P6SM SCT015 BKN030 BKN120
     FM301800 30010KT P6SM VCSH SCT015 BKN035 OVC080
     FM302200 30008KT P6SM FEW025 SCT120
     FM310400 30011KT P6SM BKN200
      AMD LTD TO CLD VIS AND WIND=

USA.gov is the U.S. government's official web portal to all federal, state and local government web resources and services.